Time;durP1;ratioP1;P1;durP2;ratioP2;P2;SDS_P1;SDS_P2;PMS_P1;PMS_P2;Temp;Humidity;BMP_temperature;BMP_pressure;BME280_temperature;BME280_humidity;BME280_pressure;Samples;Min_cycle;Max_cycle;Signal;HPM_P1;HPM_P2
2023/01/24 00:01:49;;;;;;;36.67;23.07;;;;;;;0.01;100.00;96814.00;5040070;28;20259;-78
2023/01/24 00:04:14;;;;;;;37.33;22.00;;;;;;;0.14;100.00;96818.63;5042857;28;20189;-78
2023/01/24 00:06:40;;;;;;;38.47;22.50;;;;;;;0.09;100.00;96809.44;5037575;28;20221;-78
2023/01/24 00:09:05;;;;;;;39.77;22.53;;;;;;;0.05;100.00;96803.59;5038175;28;20649;-79
2023/01/24 00:11:30;;;;;;;42.73;24.70;;;;;;;0.05;100.00;96811.28;5022005;28;20213;-79
2023/01/24 00:13:56;;;;;;;42.80;24.37;;;;;;;-0.13;100.00;96810.19;5033596;28;20209;-76
2023/01/24 00:16:21;;;;;;;41.40;24.47;;;;;;;0.01;100.00;96809.72;5035561;28;20541;-78
2023/01/24 00:18:48;;;;;;;43.03;23.10;;;;;;;-0.04;100.00;96814.97;5039933;28;20193;-78
2023/01/24 00:21:16;;;;;;;43.73;24.33;;;;;;;0.01;100.00;96808.88;5042348;28;20681;-77
2023/01/24 00:23:42;;;;;;;42.53;24.27;;;;;;;-0.08;100.00;96812.59;5041435;28;20189;-79
2023/01/24 00:26:08;;;;;;;38.20;23.57;;;;;;;-0.01;100.00;96819.97;5021236;28;20876;-78
2023/01/24 00:28:33;;;;;;;44.00;23.70;;;;;;;0.01;100.00;96809.72;5043985;28;20193;-77
2023/01/24 00:30:59;;;;;;;41.77;25.53;;;;;;;0.00;100.00;96820.81;5043736;28;20221;-79
2023/01/24 00:33:24;;;;;;;37.47;23.07;;;;;;;-0.11;100.00;96817.78;5044360;28;20239;-76
2023/01/24 00:35:51;;;;;;;43.50;24.70;;;;;;;-0.11;100.00;96812.69;5036336;28;20192;-78
2023/01/24 00:38:17;;;;;;;39.80;23.47;;;;;;;0.05;100.00;96806.16;5031901;28;20706;-78
2023/01/24 00:40:42;;;;;;;39.87;22.20;;;;;;;-0.03;100.00;96808.97;5041559;28;20231;-78
2023/01/24 00:43:07;;;;;;;39.77;23.47;;;;;;;0.02;100.00;96808.84;5035479;28;20264;-78
2023/01/24 00:45:36;;;;;;;40.47;23.80;;;;;;;-0.07;100.00;96809.16;5041509;28;20548;-78
2023/01/24 00:48:01;;;;;;;43.07;23.50;;;;;;;-0.14;100.00;96808.50;5031012;28;20187;-78
2023/01/24 00:50:27;;;;;;;40.87;23.77;;;;;;;-0.19;100.00;96797.63;5037853;28;20209;-78
2023/01/24 00:52:52;;;;;;;41.87;23.80;;;;;;;-0.02;100.00;96800.44;5041490;28;20551;-77
2023/01/24 00:55:17;;;;;;;39.10;22.53;;;;;;;-0.02;100.00;96792.75;5042638;28;20180;-78
2023/01/24 00:57:42;;;;;;;41.93;22.80;;;;;;;-0.03;100.00;96790.28;5037108;28;20186;-78
2023/01/24 01:00:08;;;;;;;38.20;23.77;;;;;;;-0.11;100.00;96808.41;5035215;28;20239;-79
2023/01/24 01:02:34;;;;;;;37.40;22.40;;;;;;;0.11;100.00;96808.50;5040686;28;20713;-78
2023/01/24 01:05:00;;;;;;;39.40;23.03;;;;;;;0.01;100.00;96811.44;5044382;28;20664;-79
2023/01/24 01:07:25;;;;;;;40.17;22.53;;;;;;;0.06;100.00;96820.59;5028748;28;20190;-78
2023/01/24 01:09:50;;;;;;;43.97;23.77;;;;;;;-0.06;100.00;96823.59;5033382;28;20208;-79
2023/01/24 01:12:15;;;;;;;40.17;23.67;;;;;;;-0.03;100.00;96823.47;5041274;28;20196;-76
2023/01/24 01:14:41;;;;;;;41.37;22.73;;;;;;;-0.05;100.00;96822.69;5037870;28;20666;-77
2023/01/24 01:17:06;;;;;;;42.43;22.47;;;;;;;-0.10;100.00;96824.56;5042136;28;20191;-77
2023/01/24 01:19:31;;;;;;;41.37;24.20;;;;;;;-0.10;100.00;96829.66;5044989;28;20200;-79
2023/01/24 01:21:57;;;;;;;43.83;24.10;;;;;;;0.07;100.00;96831.66;5038381;28;20248;-79
2023/01/24 01:24:22;;;;;;;41.17;23.23;;;;;;;-0.17;100.00;96834.16;5036236;28;20189;-79
2023/01/24 01:26:47;;;;;;;43.33;23.23;;;;;;;-0.04;100.00;96827.75;5039235;28;20200;-78
2023/01/24 01:29:13;;;;;;;39.47;22.37;;;;;;;-0.10;100.00;96834.75;5044351;28;20201;-80
2023/01/24 01:31:38;;;;;;;46.13;24.20;;;;;;;0.05;100.00;96831.69;5042194;28;20254;-79
2023/01/24 01:34:03;;;;;;;42.20;23.80;;;;;;;0.10;100.00;96840.06;5039207;28;20245;-79
2023/01/24 01:36:28;;;;;;;40.87;23.20;;;;;;;-0.03;100.00;96831.97;5026946;28;20972;-78
2023/01/24 01:38:58;;;;;;;39.67;22.40;;;;;;;-0.19;100.00;96845.28;5046203;28;20200;-79
2023/01/24 01:41:24;;;;;;;40.03;22.60;;;;;;;-0.09;100.00;96831.31;5019950;28;20213;-78
2023/01/24 01:46:41;;;;;;;40.07;21.87;;;;;;;-0.05;100.00;96838.00;5045922;28;20246;-79
2023/01/24 01:49:16;;;;;;;40.43;22.33;;;;;;;-0.16;100.00;96837.56;5043191;28;20181;-80
2023/01/24 01:51:45;;;;;;;39.07;23.03;;;;;;;-0.10;100.00;96839.88;5035045;28;20775;-78
2023/01/24 01:54:22;;;;;;;40.13;21.90;;;;;;;-0.15;100.00;96831.56;5035669;28;20342;-78
2023/01/24 01:56:52;;;;;;;41.03;23.30;;;;;;;-0.08;100.00;96836.41;5035105;28;20214;-80
2023/01/24 01:59:22;;;;;;;39.47;23.40;;;;;;;-0.13;100.00;96832.31;5034623;28;20619;-80
2023/01/24 02:01:49;;;;;;;39.03;21.50;;;;;;;-0.05;100.00;96828.63;5030095;28;20204;-79
2023/01/24 02:04:19;;;;;;;44.07;24.40;;;;;;;0.02;100.00;96836.09;5027708;28;20205;-79
2023/01/24 02:07:00;;;;;;;43.60;23.37;;;;;;;-0.06;100.00;96836.34;5048799;28;20185;-78
2023/01/24 02:09:33;;;;;;;47.00;23.87;;;;;;;-0.09;100.00;96832.19;5035343;28;20685;-80
2023/01/24 02:12:01;;;;;;;46.07;25.27;;;;;;;-0.17;100.00;96826.50;5044005;28;20255;-78
2023/01/24 02:17:11;;;;;;;39.10;21.30;;;;;;;-0.14;100.00;96846.81;5042590;28;20710;-79
2023/01/24 02:19:47;;;;;;;40.50;22.33;;;;;;;-0.19;100.00;96835.91;5046408;28;20291;-79
2023/01/24 02:22:27;;;;;;;40.13;21.43;;;;;;;-0.03;100.00;96841.34;5053294;28;20700;-78
2023/01/24 02:25:01;;;;;;;38.73;22.80;;;;;;;-0.12;100.00;96842.47;5041037;28;20189;-79
2023/01/24 02:27:27;;;;;;;41.03;22.20;;;;;;;0.05;100.00;96849.59;5042829;28;20275;-79
2023/01/24 02:29:53;;;;;;;41.77;22.80;;;;;;;-0.03;100.00;96854.09;5026903;28;20212;-78
2023/01/24 02:32:20;;;;;;;40.43;22.63;;;;;;;-0.02;100.00;96864.28;5036661;28;20736;-78
2023/01/24 02:34:46;;;;;;;40.27;23.17;;;;;;;-0.03;100.00;96852.38;5042281;28;20213;-78
2023/01/24 02:37:13;;;;;;;39.87;21.50;;;;;;;-0.25;100.00;96842.97;5045934;28;20240;-77
2023/01/24 02:39:53;;;;;;;41.60;23.40;;;;;;;-0.14;100.00;96859.59;5044557;28;20552;-79
2023/01/24 02:42:22;;;;;;;39.03;21.87;;;;;;;-0.18;100.00;96857.16;5036659;28;20225;-79
2023/01/24 02:44:57;;;;;;;39.73;22.53;;;;;;;-0.08;100.00;96856.00;5035260;28;20184;-79
2023/01/24 02:47:25;;;;;;;41.90;22.97;;;;;;;-0.04;100.00;96863.50;5033346;28;20189;-79
2023/01/24 02:49:50;;;;;;;40.20;23.10;;;;;;;-0.09;100.00;96869.63;5026474;28;20407;-79
2023/01/24 02:54:59;;;;;;;42.67;22.90;;;;;;;-0.20;100.00;96864.88;5046017;28;20200;-79
2023/01/24 03:00:11;;;;;;;45.43;23.70;;;;;;;-0.14;100.00;96863.84;5043968;28;20240;-79
2023/01/24 03:02:36;;;;;;;43.17;23.53;;;;;;;-0.20;100.00;96866.59;5051670;28;20205;-79
2023/01/24 03:05:01;;;;;;;39.03;22.50;;;;;;;-0.32;100.00;96871.22;5043017;28;20196;-77
2023/01/24 03:07:27;;;;;;;41.03;23.10;;;;;;;-0.28;100.00;96874.50;5037405;28;20200;-79
2023/01/24 03:09:52;;;;;;;39.30;22.97;;;;;;;-0.29;100.00;96868.56;5033903;28;20261;-78
2023/01/24 03:36:53;;;;;;;40.53;22.23;;;;;;;-0.28;100.00;96872.78;5043140;28;20189;-79
2023/01/24 03:42:02;;;;;;;41.17;23.17;;;;;;;-0.14;100.00;96864.69;5041199;28;20761;-78
2023/01/24 03:44:28;;;;;;;39.23;22.00;;;;;;;-0.30;100.00;96863.50;5041570;28;20205;-79
2023/01/24 03:46:53;;;;;;;40.37;23.70;;;;;;;-0.16;100.00;96860.53;5045188;28;20193;-79
2023/01/24 03:49:18;;;;;;;45.10;22.60;;;;;;;-0.13;100.00;96868.91;5041089;28;20590;-79
2023/01/24 03:54:28;;;;;;;42.57;22.97;;;;;;;-0.24;100.00;96865.88;5043523;28;20200;-79
2023/01/24 03:56:53;;;;;;;38.27;21.40;;;;;;;-0.32;100.00;96876.34;5038815;28;20184;-79
2023/01/24 03:59:18;;;;;;;43.67;22.00;;;;;;;-0.32;100.00;96873.78;5037994;28;20189;-78
2023/01/24 04:01:44;;;;;;;39.50;22.83;;;;;;;-0.19;100.00;96870.81;5041742;28;20202;-79
2023/01/24 04:04:11;;;;;;;46.73;23.00;;;;;;;-0.27;100.00;96873.63;5043963;28;20208;-80
2023/01/24 04:06:36;;;;;;;44.00;22.97;;;;;;;-0.15;100.00;96863.03;5035628;28;20190;-80
2023/01/24 04:09:01;;;;;;;46.67;24.50;;;;;;;-0.21;100.00;96875.16;5037969;28;20289;-78
2023/01/24 04:11:27;;;;;;;42.33;22.77;;;;;;;-0.20;100.00;96872.53;5043237;28;20547;-78
2023/01/24 04:13:52;;;;;;;45.63;22.63;;;;;;;-0.12;100.00;96869.75;5031790;28;20189;-78
2023/01/24 04:16:17;;;;;;;44.90;22.37;;;;;;;-0.41;100.00;96868.97;5036629;28;20197;-79
2023/01/24 04:18:43;;;;;;;41.20;23.07;;;;;;;-0.31;100.00;96866.97;5041398;28;20215;-79
2023/01/24 04:21:08;;;;;;;44.50;23.90;;;;;;;-0.26;100.00;96867.66;5045243;28;20702;-79
2023/01/24 04:23:34;;;;;;;40.90;22.37;;;;;;;-0.31;100.00;96865.22;5031881;28;20201;-79
2023/01/24 04:26:00;;;;;;;43.90;23.53;;;;;;;-0.30;100.00;96859.25;5041151;28;20209;-79
2023/01/24 04:28:26;;;;;;;43.40;23.17;;;;;;;-0.21;100.00;96867.50;5032659;28;20189;-78
2023/01/24 04:30:58;;;;;;;42.83;23.00;;;;;;;-0.08;100.00;96868.78;5042041;28;20209;-78
2023/01/24 04:33:24;;;;;;;45.67;23.57;;;;;;;-0.26;100.00;96866.81;5040153;28;20207;-79
2023/01/24 04:35:49;;;;;;;47.70;24.13;;;;;;;-0.19;100.00;96863.16;5032604;28;20183;-78
2023/01/24 04:38:15;;;;;;;44.63;23.33;;;;;;;-0.31;100.00;96856.75;5032519;28;20204;-79
2023/01/24 04:40:40;;;;;;;48.10;25.03;;;;;;;-0.12;100.00;96860.34;5064165;28;20249;-78
2023/01/24 04:43:05;;;;;;;45.83;23.30;;;;;;;-0.19;100.00;96865.72;5039486;28;20185;-79
2023/01/24 04:45:31;;;;;;;40.93;23.40;;;;;;;-0.16;100.00;96868.19;5043305;28;20205;-80
2023/01/24 04:47:56;;;;;;;46.70;23.83;;;;;;;-0.14;100.00;96868.97;5050248;28;20197;-80
2023/01/24 04:50:22;;;;;;;46.53;22.47;;;;;;;-0.05;100.00;96866.94;5022732;28;20228;-80
2023/01/24 04:52:47;;;;;;;43.70;22.83;;;;;;;-0.10;100.00;96866.25;5042065;28;20182;-80
2023/01/24 04:55:12;;;;;;;48.93;25.27;;;;;;;0.00;100.00;96877.00;5038411;28;20193;-79
2023/01/24 04:57:37;;;;;;;46.77;24.27;;;;;;;-0.17;100.00;96871.63;5035662;28;20668;-80
2023/01/24 05:00:04;;;;;;;43.57;23.23;;;;;;;-0.01;100.00;96875.31;5032978;28;20221;-77
2023/01/24 05:02:29;;;;;;;51.07;24.77;;;;;;;0.03;100.00;96873.50;5043391;28;20288;-79
2023/01/24 05:04:55;;;;;;;43.47;24.20;;;;;;;-0.07;100.00;96876.38;5039163;28;20731;-78
2023/01/24 05:07:20;;;;;;;44.27;23.43;;;;;;;-0.09;100.00;96892.59;5035462;28;20181;-77
2023/01/24 05:09:45;;;;;;;46.57;24.73;;;;;;;-0.04;100.00;96875.44;5039396;28;20665;-78
2023/01/24 05:12:10;;;;;;;49.83;25.00;;;;;;;-0.18;100.00;96890.34;5043017;28;20230;-79
2023/01/24 05:14:36;;;;;;;47.97;23.53;;;;;;;-0.21;100.00;96890.47;5037468;28;20291;-79
2023/01/24 05:17:01;;;;;;;43.47;24.37;;;;;;;-0.04;100.00;96885.66;5047079;28;20204;-80
2023/01/24 05:19:26;;;;;;;47.93;25.10;;;;;;;-0.01;100.00;96882.97;5033235;28;20649;-77
2023/01/24 05:21:52;;;;;;;53.70;27.23;;;;;;;-0.07;100.00;96885.75;5039648;28;20221;-79
2023/01/24 05:24:18;;;;;;;49.00;25.23;;;;;;;-0.34;100.00;96893.44;5033874;28;20215;-79
2023/01/24 05:26:43;;;;;;;48.23;25.10;;;;;;;-0.09;100.00;96893.47;5042153;28;20533;-79
2023/01/24 05:29:09;;;;;;;49.47;26.03;;;;;;;-0.12;100.00;96902.94;5034913;28;20293;-79
2023/01/24 05:31:34;;;;;;;55.83;27.10;;;;;;;-0.19;100.00;96901.44;5039737;28;20659;-80
2023/01/24 05:33:59;;;;;;;46.40;25.27;;;;;;;-0.11;100.00;96904.59;5037498;28;20236;-78
2023/01/24 05:36:25;;;;;;;51.90;25.17;;;;;;;-0.09;100.00;96907.94;5042414;28;20195;-78
2023/01/24 05:38:50;;;;;;;52.43;28.33;;;;;;;-0.19;100.00;96897.19;5035631;28;20631;-79
2023/01/24 05:41:17;;;;;;;43.60;24.07;;;;;;;-0.07;100.00;96912.13;5033481;28;20218;-79
2023/01/24 05:43:44;;;;;;;46.03;25.73;;;;;;;-0.11;100.00;96907.16;5027593;28;20213;-79
2023/01/24 05:46:12;;;;;;;46.43;25.17;;;;;;;-0.15;100.00;96903.88;5037391;28;20182;-79
2023/01/24 05:48:38;;;;;;;46.70;24.23;;;;;;;-0.17;100.00;96905.66;5032270;28;20200;-79
2023/01/24 05:51:05;;;;;;;47.63;23.60;;;;;;;-0.20;100.00;96899.78;5042346;28;20209;-78
2023/01/24 05:53:32;;;;;;;49.67;24.60;;;;;;;-0.12;100.00;96908.88;5032355;28;20192;-78
2023/01/24 05:55:59;;;;;;;50.03;25.53;;;;;;;0.00;100.00;96910.22;5043055;28;20566;-79
2023/01/24 05:58:25;;;;;;;50.83;24.90;;;;;;;-0.08;100.00;96909.63;5034644;28;20200;-80
2023/01/24 06:00:51;;;;;;;50.87;25.10;;;;;;;-0.19;100.00;96904.00;5045805;28;20217;-80
2023/01/24 06:03:16;;;;;;;47.53;24.17;;;;;;;-0.14;100.00;96907.25;5037930;28;20188;-80
2023/01/24 06:05:49;;;;;;;51.83;26.07;;;;;;;-0.20;100.00;96910.00;5034606;28;20212;-78
2023/01/24 06:08:15;;;;;;;56.73;27.70;;;;;;;-0.11;100.00;96914.81;5047502;28;20280;-80
2023/01/24 06:10:41;;;;;;;49.83;25.63;;;;;;;-0.13;100.00;96914.88;5041973;28;20301;-79
2023/01/24 06:13:06;;;;;;;47.07;25.37;;;;;;;-0.14;100.00;96917.47;5044448;28;20197;-80
2023/01/24 06:15:32;;;;;;;51.83;25.73;;;;;;;-0.20;100.00;96935.53;5030596;28;20197;-80
2023/01/24 06:17:57;;;;;;;55.90;27.63;;;;;;;-0.12;100.00;96921.63;5040928;28;20273;-80
2023/01/24 06:20:23;;;;;;;48.07;24.67;;;;;;;-0.15;100.00;96926.84;5034525;28;20915;-78
2023/01/24 06:22:58;;;;;;;48.23;25.47;;;;;;;-0.06;100.00;96925.72;5032765;28;20192;-79
2023/01/24 06:25:25;;;;;;;68.17;27.07;;;;;;;-0.13;100.00;96931.91;5046622;28;20219;-78
2023/01/24 06:27:51;;;;;;;84.30;26.73;;;;;;;-0.31;100.00;96933.31;5029247;28;20192;-78
2023/01/24 06:30:18;;;;;;;53.43;27.27;;;;;;;-0.04;100.00;96939.28;5032710;28;20736;-79
2023/01/24 06:33:08;;;;;;;57.17;27.27;;;;;;;-0.08;100.00;96940.28;5035140;28;20213;-80
2023/01/24 06:35:56;;;;;;;60.07;30.00;;;;;;;-0.02;100.00;96946.00;5050119;28;20212;-80
2023/01/24 06:38:23;;;;;;;56.83;26.03;;;;;;;-0.05;100.00;96940.16;5039762;28;20780;-80
2023/01/24 06:40:53;;;;;;;68.40;27.57;;;;;;;-0.18;100.00;96939.69;5026080;28;20220;-78
2023/01/24 06:43:18;;;;;;;49.30;25.80;;;;;;;-0.03;100.00;96943.50;5043338;28;20641;-78
2023/01/24 06:45:43;;;;;;;56.83;26.80;;;;;;;-0.07;100.00;96944.50;5046643;28;20193;-78
2023/01/24 06:48:09;;;;;;;49.93;25.53;;;;;;;-0.01;100.00;96946.81;5041366;28;20193;-79
2023/01/24 06:50:34;;;;;;;59.73;30.00;;;;;;;0.05;100.00;96946.63;5055393;28;20225;-78
2023/01/24 06:52:59;;;;;;;72.53;31.03;;;;;;;-0.10;100.00;96953.06;5058935;28;20186;-79
2023/01/24 06:55:25;;;;;;;63.23;28.83;;;;;;;-0.17;100.00;96955.88;5053157;28;20199;-77
2023/01/24 06:57:57;;;;;;;65.97;29.17;;;;;;;-0.17;100.00;96949.06;5050984;28;20186;-78
2023/01/24 07:00:22;;;;;;;61.40;26.90;;;;;;;0.02;100.00;96953.56;5060186;28;20196;-77
2023/01/24 07:02:47;;;;;;;60.63;28.67;;;;;;;-0.07;100.00;96959.81;5057093;28;21165;-77
2023/01/24 07:05:13;;;;;;;55.10;30.00;;;;;;;-0.07;100.00;96958.09;5053336;28;20202;-79
2023/01/24 07:07:38;;;;;;;72.37;26.50;;;;;;;-0.12;100.00;96964.22;5045074;28;20653;-79
2023/01/24 07:10:04;;;;;;;58.53;30.47;;;;;;;0.04;100.00;96970.50;5052721;28;20208;-78
2023/01/24 07:12:29;;;;;;;60.47;26.90;;;;;;;-0.05;100.00;96968.25;5046240;28;20193;-79
2023/01/24 07:14:54;;;;;;;57.97;30.23;;;;;;;0.03;100.00;96973.13;5035661;28;20189;-80
2023/01/24 07:17:20;;;;;;;67.57;34.23;;;;;;;0.09;100.00;96981.44;5035128;28;20782;-80
2023/01/24 07:19:45;;;;;;;62.03;30.97;;;;;;;0.03;100.00;96978.22;5044068;28;20209;-80
2023/01/24 07:22:12;;;;;;;54.77;27.70;;;;;;;-0.22;100.00;96978.16;5039261;28;20213;-79
2023/01/24 07:24:37;;;;;;;62.80;27.37;;;;;;;-0.17;100.00;96981.41;5044715;28;20232;-78
2023/01/24 07:27:03;;;;;;;63.03;30.83;;;;;;;0.07;100.00;96988.28;5040587;28;20197;-79
2023/01/24 07:29:28;;;;;;;60.60;26.80;;;;;;;0.07;100.00;96977.22;5039776;28;20205;-78
2023/01/24 07:31:53;;;;;;;72.47;29.20;;;;;;;-0.02;100.00;96981.75;5039374;28;20555;-80
2023/01/24 07:34:19;;;;;;;57.90;27.77;;;;;;;-0.11;100.00;96981.19;5040219;28;20189;-79
2023/01/24 07:36:45;;;;;;;84.60;28.87;;;;;;;-0.22;100.00;96979.00;5040756;28;20186;-78
2023/01/24 07:39:11;;;;;;;77.13;35.43;;;;;;;-0.17;100.00;96986.53;5032381;28;20213;-79
2023/01/24 07:41:37;;;;;;;85.40;41.03;;;;;;;-0.09;100.00;96992.19;5039009;28;20217;-80
2023/01/24 07:44:04;;;;;;;75.77;39.40;;;;;;;-0.03;100.00;96997.13;5045165;28;20269;-80
2023/01/24 07:46:31;;;;;;;73.73;28.53;;;;;;;-0.24;100.00;97011.41;5047174;28;20540;-80
2023/01/24 07:48:56;;;;;;;69.03;31.57;;;;;;;-0.13;100.00;96998.31;5036214;28;20220;-81
2023/01/24 07:51:21;;;;;;;74.57;34.67;;;;;;;-0.17;100.00;97000.13;5041820;28;20216;-78
2023/01/24 07:53:47;;;;;;;76.60;31.33;;;;;;;-0.27;100.00;97003.81;5046066;28;20185;-81
2023/01/24 07:56:15;;;;;;;72.70;33.77;;;;;;;-0.09;100.00;97004.97;5030464;28;20312;-80
2023/01/24 07:58:40;;;;;;;65.47;28.53;;;;;;;0.10;100.00;97006.09;5044172;28;20200;-80
2023/01/24 08:01:05;;;;;;;84.43;28.87;;;;;;;-0.10;100.00;97008.41;5046267;28;20572;-79
2023/01/24 08:03:30;;;;;;;70.77;30.67;;;;;;;-0.05;100.00;97001.44;5039239;28;20190;-79
2023/01/24 08:05:56;;;;;;;68.30;30.07;;;;;;;0.06;100.00;97004.50;5030802;28;20193;-79
2023/01/24 08:08:21;;;;;;;70.53;27.47;;;;;;;0.12;100.00;97011.97;5041983;28;20272;-80
2023/01/24 08:10:46;;;;;;;63.73;32.33;;;;;;;0.24;100.00;97005.63;5044523;28;20213;-81
2023/01/24 08:13:12;;;;;;;88.63;30.33;;;;;;;0.16;100.00;97005.88;5031417;28;20177;-79
2023/01/24 08:15:37;;;;;;;75.47;30.07;;;;;;;-0.08;100.00;97006.66;5039114;28;20524;-80
2023/01/24 08:18:03;;;;;;;66.20;28.40;;;;;;;-0.03;100.00;97022.66;5027517;28;20201;-81
2023/01/24 08:20:29;;;;;;;55.70;26.97;;;;;;;0.03;100.00;97019.94;5041673;28;20304;-81
2023/01/24 08:22:57;;;;;;;57.63;27.30;;;;;;;0.13;100.00;97021.31;5037014;28;20198;-79
2023/01/24 08:25:23;;;;;;;66.33;29.47;;;;;;;0.04;100.00;97028.44;5039337;28;20177;-81
2023/01/24 08:27:49;;;;;;;61.70;28.07;;;;;;;0.16;100.00;97028.88;5033991;28;20331;-80
2023/01/24 08:30:15;;;;;;;49.13;25.00;;;;;;;0.19;100.00;97031.34;5049460;28;20295;-80
2023/01/24 08:32:41;;;;;;;58.00;29.33;;;;;;;0.18;100.00;97034.78;5040340;28;20213;-79
2023/01/24 08:35:06;;;;;;;66.93;27.80;;;;;;;0.01;100.00;97033.63;5035317;28;20251;-80
2023/01/24 08:37:31;;;;;;;60.33;27.17;;;;;;;0.19;100.00;97039.00;5033529;28;20205;-79
2023/01/24 08:39:57;;;;;;;59.07;27.83;;;;;;;0.16;100.00;97043.34;5038087;28;20217;-80
2023/01/24 08:42:23;;;;;;;57.93;27.63;;;;;;;0.27;100.00;97038.78;5047995;28;20208;-81
2023/01/24 08:44:49;;;;;;;62.57;28.30;;;;;;;0.39;100.00;97042.66;5052745;28;20189;-78
2023/01/24 08:47:14;;;;;;;59.93;28.00;;;;;;;0.28;100.00;97043.81;5058178;28;20185;-78
2023/01/24 08:49:39;;;;;;;62.97;31.17;;;;;;;0.30;100.00;97043.78;5040143;28;20206;-78
2023/01/24 08:52:05;;;;;;;63.63;27.60;;;;;;;0.02;100.00;97054.03;5047689;28;20661;-79
2023/01/24 08:54:35;;;;;;;63.27;28.77;;;;;;;0.14;100.00;97058.75;5043002;28;20192;-80
2023/01/24 08:57:00;;;;;;;59.10;26.63;;;;;;;0.19;100.00;97056.88;5037680;28;20203;-81
2023/01/24 08:59:26;;;;;;;64.67;28.40;;;;;;;0.30;100.00;97060.81;5042038;28;20331;-80
2023/01/24 09:01:51;;;;;;;55.47;26.10;;;;;;;0.21;100.00;97056.84;5044719;28;20279;-80
2023/01/24 09:04:16;;;;;;;52.57;25.13;;;;;;;0.19;100.00;97054.34;5017846;28;20197;-80
2023/01/24 09:06:42;;;;;;;56.20;26.27;;;;;;;0.35;100.00;97053.84;5033253;28;20598;-79
2023/01/24 09:09:07;;;;;;;59.13;27.67;;;;;;;0.51;100.00;97055.84;5041551;28;20196;-79
2023/01/24 09:11:32;;;;;;;48.23;25.50;;;;;;;0.50;100.00;97064.41;5030533;28;20205;-80
2023/01/24 09:13:58;;;;;;;53.00;24.87;;;;;;;0.71;100.00;97056.94;5042578;28;20194;-79
2023/01/24 09:16:23;;;;;;;51.90;26.77;;;;;;;0.51;100.00;97070.34;5040792;28;20186;-81
2023/01/24 09:18:53;;;;;;;59.60;25.23;;;;;;;0.42;100.00;97068.09;5031990;28;20475;-81
2023/01/24 09:21:19;;;;;;;54.27;26.40;;;;;;;0.54;100.00;97063.44;5043042;28;20209;-82
2023/01/24 09:23:44;;;;;;;58.70;25.90;;;;;;;0.67;100.00;97068.13;5032074;28;20556;-79
2023/01/24 09:26:09;;;;;;;49.50;25.40;;;;;;;0.57;100.00;97067.59;5048354;28;20185;-82
2023/01/24 09:28:35;;;;;;;50.93;25.33;;;;;;;0.68;100.00;97070.66;5039234;28;20200;-80
2023/01/24 09:31:01;;;;;;;56.30;26.60;;;;;;;0.79;100.00;97076.22;5034342;28;20206;-80
2023/01/24 09:33:26;;;;;;;55.80;24.90;;;;;;;0.63;100.00;97072.53;5039235;28;20307;-80
2023/01/24 09:36:01;;;;;;;48.80;25.80;;;;;;;0.82;100.00;97073.59;5031591;28;20657;-79
2023/01/24 09:38:28;;;;;;;47.53;23.40;;;;;;;0.57;100.00;97077.84;5046477;28;20202;-80
2023/01/24 09:41:08;;;;;;;45.83;24.50;;;;;;;0.65;100.00;97085.25;5038064;28;20210;-81
2023/01/24 09:43:43;;;;;;;48.40;24.90;;;;;;;0.58;100.00;97074.38;5031047;28;20187;-80
2023/01/24 09:46:26;;;;;;;45.13;24.07;;;;;;;0.67;100.00;97078.38;5025834;28;20200;-79
2023/01/24 09:49:03;;;;;;;43.87;23.33;;;;;;;1.01;100.00;97078.09;5046564;28;20190;-80
2023/01/24 09:51:31;;;;;;;45.00;23.43;;;;;;;0.81;100.00;97082.16;5024620;28;20280;-79
2023/01/24 09:53:59;;;;;;;50.33;25.00;;;;;;;0.83;100.00;97085.50;5031430;28;20193;-80
2023/01/24 09:56:35;;;;;;;46.17;23.70;;;;;;;0.84;100.00;97087.16;5036233;28;20646;-79
2023/01/24 09:59:18;;;;;;;43.13;24.47;;;;;;;0.84;100.00;97092.28;5035302;28;20184;-81
2023/01/24 10:01:43;;;;;;;44.37;24.30;;;;;;;0.90;100.00;97090.41;5045777;28;20800;-80
2023/01/24 10:04:27;;;;;;;42.23;24.00;;;;;;;1.04;100.00;97072.84;5044233;28;20189;-79
2023/01/24 10:07:29;;;;;;;43.73;24.37;;;;;;;1.05;100.00;97074.53;5020693;28;20185;-80
2023/01/24 10:10:05;;;;;;;48.23;26.07;;;;;;;0.86;100.00;97079.44;5031230;28;20264;-81
2023/01/24 10:12:50;;;;;;;44.93;25.80;;;;;;;0.87;100.00;97088.75;5048732;28;20699;-80
2023/01/24 10:15:33;;;;;;;46.67;23.67;;;;;;;0.83;100.00;97080.38;5037968;28;20192;-81
2023/01/24 10:18:21;;;;;;;40.83;23.87;;;;;;;0.97;100.00;97079.06;5031783;28;20192;-79
2023/01/24 10:21:00;;;;;;;40.17;21.73;;;;;;;0.80;100.00;97074.53;5030432;28;20213;-79
2023/01/24 10:23:33;;;;;;;41.37;21.93;;;;;;;0.74;100.00;97080.69;5037069;28;20636;-79
2023/01/24 10:26:19;;;;;;;48.53;22.37;;;;;;;0.54;100.00;97075.38;5041487;28;20200;-79
2023/01/24 10:29:12;;;;;;;40.77;22.73;;;;;;;0.87;100.00;97075.16;5032816;28;20672;-81
2023/01/24 10:31:41;;;;;;;44.00;22.90;;;;;;;1.08;100.00;97069.31;5023152;28;20202;-79
2023/01/24 10:34:16;;;;;;;42.77;21.83;;;;;;;0.88;100.00;97077.66;5048361;28;20193;-79
2023/01/24 10:36:46;;;;;;;38.10;21.30;;;;;;;0.71;100.00;97068.00;5044924;28;20197;-78
2023/01/24 10:39:12;;;;;;;43.10;22.93;;;;;;;0.93;100.00;97068.09;5042075;28;20233;-79
2023/01/24 10:41:37;;;;;;;41.17;23.13;;;;;;;0.98;100.00;97071.34;5048954;28;20301;-80
2023/01/24 10:44:18;;;;;;;42.70;26.27;;;;;;;0.92;100.00;97063.06;5048296;28;20193;-80
2023/01/24 10:47:07;;;;;;;42.30;22.37;;;;;;;0.89;100.00;97070.84;5040671;28;20273;-78
2023/01/24 10:49:36;;;;;;;37.67;20.87;;;;;;;0.87;100.00;97065.75;5031640;28;20333;-79
2023/01/24 10:52:16;;;;;;;41.80;21.53;;;;;;;1.03;100.00;97071.19;5043888;28;20201;-76
2023/01/24 10:54:56;;;;;;;38.13;21.50;;;;;;;1.12;99.87;97066.59;5031259;28;20584;-77
2023/01/24 10:57:44;;;;;;;40.40;20.63;;;;;;;1.08;100.00;97065.03;5032664;28;20190;-78
2023/01/24 11:00:26;;;;;;;38.60;21.27;;;;;;;1.04;100.00;97060.91;5040829;28;20921;-79
2023/01/24 11:02:54;;;;;;;35.47;19.97;;;;;;;1.20;99.47;97063.75;5045392;28;20197;-78
2023/01/24 11:05:21;;;;;;;36.23;19.47;;;;;;;0.98;99.67;97071.34;5037073;28;20182;-78
2023/01/24 11:07:58;;;;;;;37.23;22.43;;;;;;;0.91;100.00;97058.81;5039627;28;20238;-79
2023/01/24 11:10:31;;;;;;;36.57;19.90;;;;;;;0.98;100.00;97062.84;5027566;28;20297;-78
2023/01/24 11:12:59;;;;;;;43.30;22.63;;;;;;;1.17;99.84;97061.31;5033251;28;20204;-78
2023/01/24 11:15:31;;;;;;;31.97;19.70;;;;;;;1.16;98.92;97059.66;5032851;28;20666;-79
2023/01/24 11:17:58;;;;;;;32.90;20.00;;;;;;;1.25;98.58;97058.50;5032818;28;20265;-78
2023/01/24 11:20:30;;;;;;;32.57;18.83;;;;;;;1.13;99.19;97063.13;5042854;28;20744;-80
2023/01/24 11:23:24;;;;;;;32.27;18.53;;;;;;;1.36;97.95;97064.91;5032916;28;20190;-79
2023/01/24 11:25:52;;;;;;;31.20;18.37;;;;;;;1.53;97.40;97059.19;5027614;28;20685;-80
2023/01/24 11:28:29;;;;;;;33.63;19.40;;;;;;;1.38;97.42;97058.00;5047126;28;20246;-79
2023/01/24 11:30:56;;;;;;;32.77;19.57;;;;;;;1.49;96.68;97055.03;5048319;28;20224;-82
2023/01/24 11:33:34;;;;;;;34.60;19.10;;;;;;;1.59;96.40;97051.28;5048926;28;20212;-79
2023/01/24 11:36:11;;;;;;;34.73;18.43;;;;;;;1.32;97.40;97058.22;5029045;28;20251;-79
2023/01/24 11:38:40;;;;;;;29.27;18.27;;;;;;;1.52;96.69;97054.13;5048498;28;20185;-78
2023/01/24 11:41:11;;;;;;;31.70;19.23;;;;;;;1.27;98.09;97049.88;5026460;28;20213;-78
2023/01/24 11:44:01;;;;;;;32.80;19.97;;;;;;;1.42;97.14;97044.22;5043104;28;20183;-79
2023/01/24 11:46:47;;;;;;;31.53;18.43;;;;;;;1.36;97.85;97051.28;5041212;28;20175;-79
2023/01/24 11:49:45;;;;;;;29.27;17.93;;;;;;;1.37;97.49;97038.41;5036317;28;20284;-78
2023/01/24 11:52:35;;;;;;;32.67;18.27;;;;;;;1.42;97.42;97036.53;5045991;28;20872;-81
2023/01/24 11:55:12;;;;;;;30.27;18.27;;;;;;;1.60;96.05;97039.31;5042290;28;20564;-78
2023/01/24 11:58:14;;;;;;;31.33;17.47;;;;;;;1.58;96.51;97049.59;5046841;28;20208;-79
2023/01/24 12:00:56;;;;;;;27.60;17.83;;;;;;;1.55;95.79;97042.03;5048804;28;20205;-79
2023/01/24 12:03:43;;;;;;;26.50;16.10;;;;;;;1.58;95.91;97044.47;5038927;28;20243;-80